• Join FlightAware (Why Join?)
  • Login
  • US Flag 
02:26PM EDT


 

Airport Tracker/Info


-or-


 

Live Flight TrackerFlight Track Log ✈ SIL3622 ✈ 18-Apr-2013 ✈ KGLH - KTUP

Flight Track Log - Related Links

Times and Time Zones

All times are in EDT time to prevent confusion due to time zone crossing. See the SIL3622 flight status page for this flight to view local times or setup timezone preferences in your user account.

Time Position Orientation Groundspeed Altitude Reporting Facility
EDT Latitude Longitude Course Direction KTS MPH feet Rate Location/Type
05:11PM 33.4597 -90.9225 98° East 249 287 3,100  Level Memphis Center
05:12PM 33.4872 -90.8628 61° Northeast 222 255 4,200 1,020 Climbing Memphis Center
05:13PM 33.5103 -90.8031 65° Northeast 203 234 5,200 900 Climbing Memphis Center
05:14PM 33.5167 -90.7383 83° East 192 221 6,100 780 Climbing Memphis Center
05:15PM 33.5108 -90.6761 96° East 187 215 6,800 720 Climbing Memphis Center
05:16PM 33.4828 -90.5290 98° East  Level FlightAware Approximate
05:16PM 33.5003 -90.6114 101° East 182 209 7,600  Level Memphis Center
05:17PM 33.4858 -90.5514 106° East 196 226 8,200 660 Climbing Memphis Center
05:18PM 33.4797 -90.4792 96° East 206 237 9,000 360 Climbing Memphis Center
05:19PM 33.4736 -90.4019 95° East 218 251 9,000  Level Memphis Center
05:20PM 33.4672 -90.3175 95° East 239 275 9,000  Level Memphis Center
05:21PM 33.4631 -90.2303 93° East 252 290 9,000 -60 Level Memphis Center
05:22PM 33.4669 -90.1356 87° East 263 303 8,900 -60 Descending Memphis Center
05:23PM 33.4878 -90.0508 74° East 268 308 8,900 -120 Level Memphis Center
05:24PM 33.5356 -89.9783 52° Northeast 268 308 8,700 -600 Descending Memphis Center
05:25PM 33.5769 -89.9083 55° Northeast 263 303 7,800 -900 Descending Memphis Center
05:26PM 33.6164 -89.8408 55° Northeast 252 290 7,000 -480 Descending Memphis Center
05:27PM 33.6536 -89.7758 55° Northeast 240 276 6,900 -60 Descending Memphis Center
05:28PM 33.6931 -89.7081 55° Northeast 240 276 6,900  Level Memphis Center
05:29PM 33.7344 -89.6403 54° Northeast 240 276 6,900  Level Memphis Center
05:30PM 33.7758 -89.5700 55° Northeast 240 276 6,900  Level Memphis Center
05:31PM 33.8150 -89.5022 55° Northeast 245 282 6,900  Level Memphis Center
05:32PM 33.8542 -89.4317 56° Northeast 245 282 6,900  Level Memphis Center
05:33PM 33.8911 -89.3689 55° Northeast 240 276 6,900  Level Memphis Center
05:34PM 33.9322 -89.3006 54° Northeast 240 276 6,900  Level Memphis Center
05:35PM 33.9672 -89.2375 56° Northeast 235 270 6,900 -180 Level Memphis Center
05:36PM 34.0042 -89.1744 55° Northeast 229 264 6,600 -720 Descending Memphis Center
05:37PM 34.0392 -89.1164 54° Northeast 224 258 5,500 -1,140 Descending Memphis Center
05:38PM 34.0761 -89.0531 55° Northeast 224 258 4,400 -1,200 Descending Memphis Center
05:39PM 34.1089 -88.9975 55° Northeast 212 244 3,200 -780 Descending Memphis Center
05:40PM 34.1417 -88.9417 55° Northeast 207 238 2,900 -180 Descending Memphis Center
05:41PM 34.1742 -88.8808 57° Northeast 207 238 2,900 -420 Level Memphis Center
05:42PM 34.2092 -88.8300 50° Northeast 207 238 2,100 -840 Descending Memphis Center